createdAt,value
2022-10-10T00:01:48.780Z,18.05
2022-10-10T00:04:17.833Z,18.00
2022-10-10T00:06:46.979Z,17.92
2022-10-10T00:09:16.060Z,15.07
2022-10-10T00:11:45.033Z,13.55
2022-10-10T00:14:14.110Z,15.20
2022-10-10T00:16:44.529Z,15.18
2022-10-10T00:19:13.611Z,12.35
2022-10-10T00:21:42.678Z,19.38
2022-10-10T00:24:11.780Z,15.80
2022-10-10T00:26:40.845Z,16.35
2022-10-10T00:29:09.870Z,20.05
2022-10-10T00:31:39.101Z,16.35
2022-10-10T00:34:09.517Z,12.43
2022-10-10T00:36:38.613Z,11.82
2022-10-10T00:39:07.661Z,19.65
2022-10-10T00:41:36.748Z,15.38
2022-10-10T00:44:09.265Z,17.25
2022-10-10T00:46:39.297Z,17.42
2022-10-10T00:49:15.423Z,17.98
2022-10-10T00:51:47.229Z,23.15
2022-10-10T00:54:19.277Z,18.33
2022-10-10T00:56:54.131Z,24.25
2022-10-10T00:59:24.433Z,16.83
2022-10-10T01:01:53.692Z,17.42
2022-10-10T01:04:36.052Z,13.57
2022-10-10T01:07:08.573Z,17.83
2022-10-10T01:09:42.552Z,16.65
2022-10-10T01:12:24.119Z,16.27
2022-10-10T01:15:05.996Z,16.55
2022-10-10T01:17:41.134Z,17.48
2022-10-10T01:20:46.049Z,15.80
2022-10-10T01:23:39.545Z,16.65
2022-10-10T01:26:36.790Z,14.90
2022-10-10T01:29:18.004Z,13.35
2022-10-10T01:31:49.905Z,21.15
2022-10-10T01:34:29.241Z,19.45
2022-10-10T01:37:05.671Z,20.75
2022-10-10T01:39:44.196Z,16.45
2022-10-10T01:42:20.892Z,19.85
2022-10-10T01:44:53.996Z,19.58
2022-10-10T01:47:23.729Z,23.80
2022-10-10T01:49:58.296Z,19.92
2022-10-10T01:52:44.519Z,20.13
2022-10-10T01:55:35.901Z,14.50
2022-10-10T01:58:20.100Z,18.25
2022-10-10T02:01:01.227Z,13.98
2022-10-10T02:03:36.226Z,14.48
2022-10-10T02:06:11.274Z,12.35
2022-10-10T02:08:46.783Z,16.10
2022-10-10T02:11:15.923Z,14.50
2022-10-10T02:13:50.810Z,22.38
2022-10-10T02:16:27.224Z,15.27
2022-10-10T02:18:59.855Z,15.02
2022-10-10T02:21:30.364Z,14.02
2022-10-10T02:24:07.004Z,17.23
2022-10-10T02:26:39.182Z,12.40
2022-10-10T02:29:12.816Z,19.05
2022-10-10T02:31:47.080Z,15.02
2022-10-10T02:34:20.689Z,16.85
2022-10-10T02:36:53.747Z,16.67
2022-10-10T02:39:28.601Z,19.55
2022-10-10T02:41:57.899Z,14.13
2022-10-10T02:44:28.233Z,16.63
2022-10-10T02:46:59.055Z,18.65
2022-10-10T02:49:29.951Z,18.30
2022-10-10T02:51:59.151Z,19.27
2022-10-10T02:54:28.401Z,17.25
2022-10-10T02:56:57.597Z,18.58
2022-10-10T02:59:26.740Z,15.60
2022-10-10T03:01:55.875Z,16.50
2022-10-10T03:04:26.479Z,14.77
2022-10-10T03:06:55.530Z,18.50
2022-10-10T03:09:24.598Z,19.23
2022-10-10T03:11:53.573Z,17.08
2022-10-10T03:14:22.697Z,16.08
2022-10-10T03:16:51.739Z,19.00
2022-10-10T03:19:20.782Z,16.20
2022-10-10T03:21:51.143Z,16.23
2022-10-10T03:24:20.624Z,12.27
2022-10-10T03:26:49.625Z,13.70
2022-10-10T03:29:18.648Z,21.88
2022-10-10T03:31:47.849Z,15.50
2022-10-10T03:34:17.006Z,12.45
2022-10-10T03:36:46.140Z,12.38
2022-10-10T03:39:16.733Z,18.88
2022-10-10T03:41:45.865Z,13.32
2022-10-10T03:44:14.859Z,15.52
2022-10-10T03:46:43.890Z,14.60
2022-10-10T03:49:12.889Z,13.10
2022-10-10T03:51:42.104Z,17.05
2022-10-10T03:54:11.174Z,18.15
2022-10-10T03:56:41.648Z,14.82
2022-10-10T03:59:10.651Z,11.48
2022-10-10T04:01:39.689Z,11.85
2022-10-10T04:04:08.729Z,16.17
2022-10-10T04:06:37.731Z,15.05
2022-10-10T04:09:06.796Z,12.80
2022-10-10T04:11:37.061Z,18.45
2022-10-10T04:14:08.252Z,13.85
2022-10-10T04:16:37.265Z,13.45
2022-10-10T04:19:06.306Z,23.60
2022-10-10T04:21:35.816Z,18.67
2022-10-10T04:24:05.197Z,12.02
2022-10-10T04:26:37.315Z,13.65
2022-10-10T04:29:09.022Z,11.70
2022-10-10T04:31:38.108Z,16.17
2022-10-10T04:34:07.292Z,12.93
2022-10-10T04:36:36.916Z,15.63
2022-10-10T04:39:06.068Z,17.90
2022-10-10T04:41:35.116Z,16.40
2022-10-10T04:44:04.153Z,20.65
2022-10-10T04:46:37.301Z,14.43
2022-10-10T04:49:06.281Z,11.95
2022-10-10T04:51:35.332Z,25.65
2022-10-10T04:54:04.630Z,15.48
2022-10-10T04:56:33.690Z,22.70
2022-10-10T04:59:02.812Z,15.02
2022-10-10T05:01:31.935Z,20.88
2022-10-10T05:04:02.472Z,12.05
2022-10-10T05:06:31.501Z,17.88
2022-10-10T05:09:00.486Z,13.57
2022-10-10T05:11:29.588Z,15.88
2022-10-10T05:13:58.649Z,14.57
2022-10-10T05:16:27.769Z,16.80
2022-10-10T05:18:57.842Z,13.88
2022-10-10T05:21:28.549Z,18.35
2022-10-10T05:23:57.538Z,14.07
2022-10-10T05:26:27.015Z,23.67
2022-10-10T05:28:56.020Z,15.05
2022-10-10T05:31:25.600Z,16.10
2022-10-10T05:33:54.607Z,18.10
2022-10-10T05:36:23.636Z,15.57
2022-10-10T05:38:53.992Z,20.75
2022-10-10T05:41:23.061Z,22.88
2022-10-10T05:43:52.078Z,16.52
2022-10-10T05:46:23.260Z,26.83
2022-10-10T05:48:53.301Z,23.23
2022-10-10T05:51:23.010Z,21.65
2022-10-10T05:53:53.502Z,21.13
2022-10-10T05:56:23.352Z,14.25
2022-10-10T05:58:52.471Z,19.00
2022-10-10T06:01:21.468Z,17.33
2022-10-10T06:03:55.821Z,14.60
2022-10-10T06:06:25.909Z,15.48
2022-10-10T06:08:56.296Z,22.65
2022-10-10T06:11:26.094Z,13.55
2022-10-10T06:13:55.261Z,22.45
2022-10-10T06:16:25.342Z,17.17
2022-10-10T06:18:56.694Z,15.48
2022-10-10T06:21:26.593Z,17.25
2022-10-10T06:23:57.084Z,15.50
2022-10-10T06:26:26.217Z,28.52
2022-10-10T06:28:55.333Z,18.60
2022-10-10T06:31:24.345Z,19.15
2022-10-10T06:33:53.343Z,24.88
2022-10-10T06:36:22.391Z,15.85
2022-10-10T06:38:51.424Z,18.65
2022-10-10T06:41:21.854Z,11.80
2022-10-10T06:43:51.779Z,14.93
2022-10-10T06:46:20.796Z,13.02
2022-10-10T06:48:50.364Z,13.35
2022-10-10T06:51:19.913Z,15.13
2022-10-10T06:53:49.060Z,16.42
2022-10-10T06:56:26.279Z,15.88
2022-10-10T06:58:57.838Z,12.40
2022-10-10T07:01:27.467Z,10.02
2022-10-10T07:03:56.727Z,17.00
2022-10-10T07:06:25.861Z,12.43
2022-10-10T07:08:54.908Z,13.13
2022-10-10T07:11:24.516Z,15.00
2022-10-10T07:13:54.241Z,19.35
2022-10-10T07:16:24.665Z,16.02
2022-10-10T07:18:53.721Z,12.60
2022-10-10T07:21:22.708Z,25.83
2022-10-10T07:23:51.858Z,22.25
2022-10-10T07:26:22.582Z,15.25
2022-10-10T07:28:51.692Z,22.73
2022-10-10T07:31:20.890Z,14.70
2022-10-10T07:33:51.721Z,12.93
2022-10-10T07:36:20.880Z,16.00
2022-10-10T07:38:54.745Z,12.25
2022-10-10T07:41:23.874Z,11.40
2022-10-10T07:43:56.574Z,13.27
2022-10-10T07:46:25.836Z,12.13
2022-10-10T07:48:57.045Z,15.55
2022-10-10T07:51:26.126Z,10.93
2022-10-10T07:53:55.399Z,14.02
2022-10-10T07:56:25.017Z,17.10
2022-10-10T07:58:54.476Z,14.82
2022-10-10T08:01:23.689Z,11.20
2022-10-10T08:03:52.894Z,12.90
2022-10-10T08:06:23.458Z,14.02
2022-10-10T08:08:52.831Z,16.35
2022-10-10T08:11:23.133Z,23.77
2022-10-10T08:13:52.659Z,18.15
2022-10-10T08:16:22.110Z,15.20
2022-10-10T08:18:51.130Z,17.85
2022-10-10T08:21:20.273Z,15.20
2022-10-10T08:23:51.655Z,18.38
2022-10-10T08:26:21.181Z,16.95
2022-10-10T08:28:50.327Z,14.57
2022-10-10T08:31:21.783Z,20.10
2022-10-10T08:33:53.388Z,15.75
2022-10-10T08:36:24.462Z,16.80
2022-10-10T08:38:57.497Z,17.08
2022-10-10T08:41:40.045Z,12.80
2022-10-10T08:44:19.589Z,10.50
2022-10-10T08:46:53.755Z,9.52
2022-10-10T08:49:31.246Z,13.55
2022-10-10T08:54:38.109Z,12.30
2022-10-10T08:57:14.240Z,11.85
2022-10-10T08:59:44.510Z,11.38
2022-10-10T09:02:53.091Z,12.00
2022-10-10T09:05:42.655Z,9.43
2022-10-10T09:08:34.741Z,9.40
2022-10-10T09:11:17.948Z,9.98
2022-10-10T09:13:54.224Z,13.40
2022-10-10T09:16:34.799Z,8.25
2022-10-10T09:19:24.230Z,10.13
2022-10-10T09:21:59.024Z,12.38
2022-10-10T09:24:32.524Z,8.93
2022-10-10T09:27:06.088Z,14.70
2022-10-10T09:29:43.637Z,16.55
2022-10-10T09:32:18.501Z,13.02
2022-10-10T09:34:52.171Z,8.23
2022-10-10T09:37:46.256Z,11.50
2022-10-10T09:40:25.544Z,10.25
2022-10-10T09:42:57.620Z,12.02
2022-10-10T09:45:33.963Z,14.43
2022-10-10T09:48:03.054Z,19.65
2022-10-10T09:50:32.484Z,12.52
2022-10-10T09:53:01.532Z,10.13
2022-10-10T09:55:35.780Z,14.27
2022-10-10T09:58:16.726Z,10.60
2022-10-10T10:00:45.780Z,11.68
2022-10-10T10:03:17.010Z,12.07
2022-10-10T10:05:55.090Z,13.10
2022-10-10T10:08:28.774Z,16.60
2022-10-10T10:10:59.495Z,10.95
2022-10-10T10:13:33.371Z,9.63
2022-10-10T10:16:07.361Z,10.10
2022-10-10T10:18:43.179Z,11.60
2022-10-10T10:21:23.319Z,8.57
2022-10-10T10:23:59.541Z,10.73
2022-10-10T10:26:44.566Z,13.60
2022-10-10T10:32:55.485Z,9.27
2022-10-10T10:35:30.225Z,15.50
2022-10-10T10:38:22.702Z,9.77
2022-10-10T10:41:04.499Z,9.82
2022-10-10T10:43:55.098Z,9.02
2022-10-10T10:46:38.917Z,10.98
2022-10-10T10:49:18.687Z,9.38
2022-10-10T10:52:22.432Z,7.93
2022-10-10T10:55:10.083Z,11.07
2022-10-10T10:58:22.816Z,12.52
2022-10-10T11:01:24.321Z,7.07
2022-10-10T11:05:18.330Z,9.68
2022-10-10T11:07:18.527Z,6.80
2022-10-10T11:09:57.675Z,11.15
2022-10-10T11:12:54.626Z,11.88
2022-10-10T11:15:54.215Z,8.20
2022-10-10T11:18:25.293Z,11.50
2022-10-10T11:21:00.808Z,7.67
2022-10-10T11:23:36.578Z,10.82
2022-10-10T11:26:11.972Z,13.10
2022-10-10T11:28:49.488Z,9.18
2022-10-10T11:31:24.641Z,21.95
2022-10-10T11:33:58.840Z,11.82
2022-10-10T11:36:31.452Z,13.95
2022-10-10T11:39:15.618Z,11.75
2022-10-10T11:41:51.102Z,12.13
2022-10-10T11:44:26.394Z,11.82
2022-10-10T11:47:01.559Z,9.70
2022-10-10T11:49:40.909Z,10.50
2022-10-10T11:52:33.580Z,8.73
2022-10-10T11:55:14.161Z,11.93
2022-10-10T11:57:49.088Z,6.47
2022-10-10T12:00:19.750Z,9.30
2022-10-10T12:02:58.255Z,10.88
2022-10-10T12:05:30.863Z,10.23
2022-10-10T12:08:12.310Z,7.72
2022-10-10T12:10:51.476Z,13.40
2022-10-10T12:13:30.027Z,13.35
2022-10-10T12:16:05.175Z,10.40
2022-10-10T12:18:44.702Z,11.48
2022-10-10T12:21:17.169Z,5.63
2022-10-10T12:23:50.339Z,9.40
2022-10-10T12:26:24.477Z,8.93
2022-10-10T12:29:04.191Z,10.38
2022-10-10T12:31:38.402Z,12.38
2022-10-10T12:34:17.007Z,6.60
2022-10-10T12:37:10.793Z,8.07
2022-10-10T12:40:01.368Z,7.28
2022-10-10T12:42:35.320Z,11.48
2022-10-10T12:45:05.070Z,9.57
2022-10-10T12:48:05.007Z,10.02
2022-10-10T12:50:38.603Z,6.97
2022-10-10T12:53:19.124Z,17.50
2022-10-10T12:55:51.224Z,9.00
2022-10-10T12:58:27.842Z,6.80
2022-10-10T13:00:59.134Z,6.32
2022-10-10T13:03:33.920Z,11.05
2022-10-10T13:06:09.900Z,9.40
2022-10-10T13:08:42.980Z,13.13
2022-10-10T13:11:14.835Z,13.05
2022-10-10T13:13:52.128Z,11.02
2022-10-10T13:18:54.126Z,8.10
2022-10-10T13:21:26.441Z,9.77
2022-10-10T13:24:03.514Z,7.55
2022-10-10T13:26:37.696Z,8.90
2022-10-10T13:29:24.485Z,12.57
2022-10-10T13:31:56.509Z,18.02
2022-10-10T13:34:30.751Z,7.53
2022-10-10T13:37:02.689Z,7.53
2022-10-10T13:39:35.654Z,9.73
2022-10-10T13:42:07.909Z,8.40
2022-10-10T13:44:52.652Z,8.60
2022-10-10T13:47:53.869Z,10.77
2022-10-10T13:50:28.820Z,10.27
2022-10-10T13:53:48.024Z,11.23
2022-10-10T13:56:23.736Z,9.38
2022-10-10T13:58:56.060Z,9.27
2022-10-10T14:01:37.336Z,8.40
2022-10-10T14:04:23.543Z,12.25
2022-10-10T14:07:01.571Z,12.50
2022-10-10T14:09:37.093Z,11.00
2022-10-10T14:12:16.082Z,8.95
2022-10-10T14:14:48.531Z,9.82
2022-10-10T14:17:19.275Z,11.93
2022-10-10T14:19:49.834Z,8.82
2022-10-10T14:22:19.652Z,11.35
2022-10-10T14:24:49.017Z,10.25
2022-10-10T14:27:25.692Z,7.72
2022-10-10T14:29:58.332Z,15.20
2022-10-10T14:32:28.896Z,13.07
2022-10-10T14:34:57.999Z,10.40
2022-10-10T14:37:30.871Z,9.35
2022-10-10T14:40:00.158Z,12.93
2022-10-10T14:42:29.345Z,10.73
2022-10-10T14:44:58.516Z,8.63
2022-10-10T14:47:28.985Z,10.60
2022-10-10T14:49:58.096Z,11.23
2022-10-10T14:52:27.268Z,12.73
2022-10-10T14:54:56.333Z,7.20
2022-10-10T14:57:25.383Z,10.05
2022-10-10T14:59:55.317Z,15.23
2022-10-10T15:02:24.380Z,12.38
2022-10-10T15:04:54.795Z,13.65
2022-10-10T15:07:23.893Z,13.07
2022-10-10T15:12:45.821Z,10.13
2022-10-10T15:15:15.638Z,11.48
2022-10-10T15:17:44.770Z,12.85
2022-10-10T15:20:15.328Z,13.38
2022-10-10T15:22:46.119Z,15.00
2022-10-10T15:25:15.166Z,15.50
2022-10-10T15:27:44.582Z,14.95
2022-10-10T15:30:15.682Z,13.00
2022-10-10T15:32:44.825Z,10.32
2022-10-10T15:35:20.262Z,14.75
2022-10-10T15:37:50.494Z,12.57
2022-10-10T15:40:25.044Z,11.25
2022-10-10T15:42:56.898Z,17.98
2022-10-10T15:45:51.418Z,11.32
2022-10-10T15:48:20.352Z,11.55
2022-10-10T15:50:51.419Z,10.52
2022-10-10T15:53:21.008Z,11.00
2022-10-10T15:55:50.276Z,12.93
2022-10-10T15:58:19.604Z,14.02
2022-10-10T16:00:48.931Z,11.10
2022-10-10T16:03:18.113Z,13.45
2022-10-10T16:05:47.163Z,14.55
2022-10-10T16:08:18.942Z,13.15
2022-10-10T16:10:48.105Z,12.57
2022-10-10T16:13:17.196Z,15.57
2022-10-10T16:15:46.297Z,10.88
2022-10-10T16:18:15.619Z,17.15
2022-10-10T16:20:45.057Z,15.07
2022-10-10T16:23:14.203Z,16.63
2022-10-10T16:25:44.740Z,25.35
2022-10-10T16:28:13.905Z,14.23
2022-10-10T16:30:43.010Z,16.75
2022-10-10T16:33:12.038Z,19.50
2022-10-10T16:35:41.163Z,14.80
2022-10-10T16:38:10.229Z,18.50
2022-10-10T16:40:39.269Z,16.58
2022-10-10T16:43:09.760Z,20.88
2022-10-10T16:45:43.715Z,19.73
2022-10-10T16:48:13.280Z,19.98
2022-10-10T16:50:43.736Z,17.65
2022-10-10T16:53:12.922Z,15.45
2022-10-10T16:55:43.145Z,16.00
2022-10-10T16:58:13.541Z,15.93
2022-10-10T17:00:43.477Z,18.52
2022-10-10T17:03:12.591Z,16.85
2022-10-10T17:05:41.767Z,15.48
2022-10-10T17:08:11.686Z,20.70
2022-10-10T17:10:41.144Z,17.98
2022-10-10T17:13:10.226Z,17.30
2022-10-10T17:15:43.409Z,19.35
2022-10-10T17:18:12.725Z,19.58
2022-10-10T17:20:43.102Z,19.70
2022-10-10T17:23:12.451Z,17.70
2022-10-10T17:25:42.957Z,18.83
2022-10-10T17:28:13.858Z,16.75
2022-10-10T17:30:50.083Z,19.90
2022-10-10T17:33:21.231Z,19.58
2022-10-10T17:35:51.832Z,22.60
2022-10-10T17:38:39.083Z,17.75
2022-10-10T17:43:41.716Z,25.77
2022-10-10T17:46:33.679Z,31.70
2022-10-10T17:49:04.492Z,22.67
2022-10-10T17:51:35.371Z,23.20
2022-10-10T17:54:06.484Z,24.20
2022-10-10T17:56:36.094Z,24.75
2022-10-10T17:59:06.861Z,22.60
2022-10-10T18:01:38.701Z,21.75
2022-10-10T18:04:08.993Z,22.52
2022-10-10T18:06:38.956Z,25.20
2022-10-10T18:09:08.064Z,21.52
2022-10-10T18:11:37.148Z,19.92
2022-10-10T18:14:06.388Z,15.55
2022-10-10T18:16:37.283Z,23.55
2022-10-10T18:19:08.986Z,19.55
2022-10-10T18:21:38.184Z,21.27
2022-10-10T18:24:08.434Z,24.98
2022-10-10T18:26:39.138Z,25.15
2022-10-10T18:29:08.178Z,27.95
2022-10-10T18:31:40.237Z,38.55
2022-10-10T18:34:09.365Z,34.05
2022-10-10T18:36:42.384Z,28.90
2022-10-10T18:39:16.623Z,32.65
2022-10-10T18:41:46.353Z,37.28
2022-10-10T18:44:18.917Z,33.92
2022-10-10T18:46:51.097Z,28.80
2022-10-10T18:49:20.292Z,33.08
2022-10-10T18:51:49.426Z,32.58
2022-10-10T18:54:19.960Z,30.08
2022-10-10T18:56:49.236Z,28.50
2022-10-10T18:59:21.625Z,28.33
2022-10-10T19:01:52.677Z,38.95
2022-10-10T19:04:22.636Z,27.98
2022-10-10T19:06:56.977Z,26.55
2022-10-10T19:09:27.018Z,30.23
2022-10-10T19:11:58.699Z,26.17
2022-10-10T19:14:27.924Z,30.73
2022-10-10T19:16:59.274Z,25.95
2022-10-10T19:19:29.810Z,30.95
2022-10-10T19:21:59.068Z,25.13
2022-10-10T19:24:28.498Z,34.85
2022-10-10T19:26:59.004Z,29.30
2022-10-10T19:29:28.598Z,28.77
2022-10-10T19:31:59.288Z,28.88
2022-10-10T19:34:28.503Z,34.65
2022-10-10T19:36:58.802Z,36.53
2022-10-10T19:39:28.322Z,29.83
2022-10-10T19:41:57.695Z,30.10
2022-10-10T19:44:26.867Z,22.77
2022-10-10T19:46:56.342Z,29.45
2022-10-10T19:49:28.022Z,23.02
2022-10-10T19:51:57.076Z,35.03
2022-10-10T19:54:26.382Z,26.98
2022-10-10T19:56:55.448Z,24.20
2022-10-10T19:59:25.264Z,25.27
2022-10-10T20:01:55.700Z,24.40
2022-10-10T20:04:25.055Z,25.15
2022-10-10T20:06:55.541Z,26.80
2022-10-10T20:09:25.866Z,22.90
2022-10-10T20:11:56.068Z,23.02
2022-10-10T20:14:25.157Z,31.08
2022-10-10T20:16:57.414Z,28.48
2022-10-10T20:19:29.759Z,27.27
2022-10-10T20:22:17.216Z,29.88
2022-10-10T20:24:55.143Z,30.27
2022-10-10T20:27:31.042Z,25.95
2022-10-10T20:30:02.895Z,25.60
2022-10-10T20:32:32.442Z,26.75
2022-10-10T20:35:02.533Z,24.27
2022-10-10T20:37:35.396Z,19.77
2022-10-10T20:40:06.490Z,26.00
2022-10-10T20:42:35.670Z,21.95
2022-10-10T20:45:08.073Z,30.13
2022-10-10T20:47:40.257Z,32.65
2022-10-10T20:50:10.321Z,32.35
2022-10-10T20:52:40.781Z,29.00
2022-10-10T20:55:10.981Z,32.25
2022-10-10T20:57:40.194Z,36.95
2022-10-10T21:00:11.441Z,37.75
2022-10-10T21:02:40.536Z,33.38
2022-10-10T21:05:10.045Z,37.42
2022-10-10T21:07:40.454Z,33.90
2022-10-10T21:10:11.425Z,30.15
2022-10-10T21:12:40.558Z,27.35
2022-10-10T21:15:10.555Z,27.60
2022-10-10T21:17:39.819Z,28.90
2022-10-10T21:20:10.348Z,32.75
2022-10-10T21:22:40.986Z,33.22
2022-10-10T21:25:12.364Z,31.02
2022-10-10T21:27:41.402Z,31.80
2022-10-10T21:30:11.493Z,30.83
2022-10-10T21:32:40.542Z,32.50
2022-10-10T21:35:10.446Z,26.08
2022-10-10T21:37:40.909Z,32.75
2022-10-10T21:40:11.888Z,30.67
2022-10-10T21:42:41.179Z,29.55
2022-10-10T21:45:11.273Z,31.70
2022-10-10T21:47:43.372Z,33.83
2022-10-10T21:50:12.869Z,34.47
2022-10-10T21:52:43.346Z,38.95
2022-10-10T21:55:12.393Z,40.80
2022-10-10T21:57:41.458Z,30.75
2022-10-10T22:00:12.481Z,42.08
2022-10-10T22:02:41.953Z,40.85
2022-10-10T22:05:12.122Z,43.00
2022-10-10T22:07:45.301Z,37.13
2022-10-10T22:10:19.265Z,37.10
2022-10-10T22:12:48.348Z,38.80
2022-10-10T22:15:17.576Z,37.92
2022-10-10T22:17:46.646Z,41.28
2022-10-10T22:20:15.715Z,31.00
2022-10-10T22:22:46.372Z,30.73
2022-10-10T22:25:18.294Z,34.10
2022-10-10T22:27:47.374Z,33.67
2022-10-10T22:30:16.448Z,40.22
2022-10-10T22:32:45.497Z,36.78
2022-10-10T22:35:14.523Z,41.30
2022-10-10T22:37:44.943Z,39.38
2022-10-10T22:40:14.340Z,39.40
2022-10-10T22:42:43.460Z,37.42
2022-10-10T22:45:12.516Z,34.88
2022-10-10T22:47:41.586Z,32.92
2022-10-10T22:50:12.541Z,32.67
2022-10-10T22:52:42.511Z,38.92
2022-10-10T22:55:18.033Z,33.42
2022-10-10T22:57:47.754Z,31.85
2022-10-10T23:00:18.086Z,34.00
2022-10-10T23:02:47.291Z,33.45
2022-10-10T23:05:16.571Z,32.50
2022-10-10T23:07:45.615Z,34.50
2022-10-10T23:10:16.121Z,39.58
2022-10-10T23:12:45.197Z,37.03
2022-10-10T23:15:14.302Z,37.63
2022-10-10T23:17:43.332Z,33.03
2022-10-10T23:20:13.341Z,31.95
2022-10-10T23:22:42.372Z,29.13
2022-10-10T23:25:11.598Z,38.78
2022-10-10T23:27:42.055Z,41.88
2022-10-10T23:30:12.469Z,36.45
2022-10-10T23:32:41.565Z,38.63
2022-10-10T23:35:11.005Z,32.35
2022-10-10T23:37:40.076Z,34.10
2022-10-10T23:40:10.401Z,37.83
2022-10-10T23:42:39.514Z,35.10
2022-10-10T23:45:11.452Z,29.73
2022-10-10T23:47:40.546Z,31.80
2022-10-10T23:50:10.625Z,28.60
2022-10-10T23:52:40.542Z,33.10
2022-10-10T23:55:11.276Z,38.05
2022-10-10T23:57:40.353Z,35.42
